Airfield :
LOGIN :

Register | Disclaimer

   EN    FR    IT 

 










Legend :    VFR   Marginal VFR   IFR   Intensive IFR   Very Intensive IFR
Visi :
Ceiling :
>= 8 km
>= 3000ft
5 to 8 km
1000 to 3000 ft
1500m to 5 km
500 to 1000 ft
800 to 1500m
200 to 500 ft
< 800m
< 200 ft
Symbols :   Thunderstorms  Fog  Heavy snow  Heavy precipitations  Wind > 20 kt
SIGMETs :     Misc.  Thunderstorms  Icing  Turbulence  Mountain Waves  Volcanic Ashes






- Airport Elevation : 1302 ft
- IATA code : GNB


LFLS - Grenoble / St. Geoirs

CURRENT METAR :
  • 200030Z AUTO 11007KT CAVOK M01/M02 Q1026

EXPIRED METARs :
  • 200000Z AUTO 13002KT CAVOK 01/00 Q1027
  • 192330Z AUTO 12004KT CAVOK 00/M01 Q1027
  • 192300Z AUTO 09005KT CAVOK 00/M01 Q1027
  • 192230Z AUTO VRB02KT CAVOK 01/00 Q1027
  • 192200Z AUTO 14005KT CAVOK 02/00 Q1027

TAF TAF LFLS
Valid from the 19 at 15:00 until the 20 at 15:00 UTC


191400Z 1915/2015 08005KT 9999 BKN030
TEMPO 1915/1917 24005KT 4000 SHRA BKN025TCU
BECMG 1920/1922 CAVOK
TEMPO 2000/2008 2000 BR
PROB30
TEMPO 2002/2007 0600 FG VV///
ATIS : +33 4 76 65 55 89



MET'MAP, your aeronautical weather chart ! - Copyright ORBIFLY December 2007 - Disclaimer

ORBIFLY MET'MAP TEAM :

Programming & Development : Alexandra Zaïnal
Concept & original design : Baudouin d'Aumeries
Assistance for programming : Marc-Olivier Méhu
Technical & hardware support : Manuel Goepfert

Contact : metmap@orbifly.com




SOURCES & CREDITS :

   NOAA